Time;durP1;ratioP1;P1;durP2;ratioP2;P2;SDS_P1;SDS_P2;PMS_P1;PMS_P2;Temp;Humidity;BMP_temperature;BMP_pressure;BME280_temperature;BME280_humidity;BME280_pressure;Samples;Min_cycle;Max_cycle;Signal;HPM_P1;HPM_P2
2021/11/10 00:02:18;;;;;;;3.80;2.42;;;17.50;69.10;;;;;;10337976;28;20117;-53
2021/11/10 00:07:19;;;;;;;4.32;2.65;;;17.60;69.00;;;;;;10333406;28;20054;-53
2021/11/10 00:12:19;;;;;;;3.58;2.53;;;17.60;68.80;;;;;;10351612;28;20433;-52
2021/11/10 00:17:21;;;;;;;5.68;3.08;;;17.70;68.70;;;;;;10333148;28;20050;-50
2021/11/10 00:22:24;;;;;;;3.47;2.42;;;17.70;68.80;;;;;;10333901;28;20038;-53
2021/11/10 00:27:25;;;;;;;4.43;2.78;;;17.60;68.90;;;;;;10333259;28;20100;-53
2021/11/10 00:32:26;;;;;;;4.97;2.78;;;17.60;69.00;;;;;;10344452;28;20035;-54
2021/11/10 00:37:27;;;;;;;3.78;2.60;;;17.60;68.80;;;;;;10357602;28;20433;-54
2021/11/10 00:42:27;;;;;;;3.33;2.10;;;17.60;68.80;;;;;;10336464;28;20084;-53
2021/11/10 00:47:28;;;;;;;4.20;2.22;;;17.60;68.80;;;;;;10373448;28;20124;-54
2021/11/10 00:52:29;;;;;;;2.45;1.90;;;17.50;68.90;;;;;;10379450;28;20029;-53
2021/11/10 00:57:30;;;;;;;3.53;2.58;;;17.60;68.90;;;;;;10379294;28;20080;-51
2021/11/10 01:02:30;;;;;;;4.15;2.47;;;17.60;68.70;;;;;;10379023;28;20034;-50
2021/11/10 01:07:31;;;;;;;3.65;2.30;;;17.60;68.60;;;;;;10378681;28;20108;-52
2021/11/10 01:12:33;;;;;;;4.53;2.72;;;17.60;68.50;;;;;;10364552;28;20105;-52
2021/11/10 01:17:33;;;;;;;3.67;2.13;;;17.60;68.40;;;;;;10342262;28;20022;-52
2021/11/10 01:22:34;;;;;;;4.00;2.65;;;17.60;68.50;;;;;;10365830;28;20113;-52
2021/11/10 01:27:35;;;;;;;2.88;2.08;;;17.60;68.60;;;;;;10377993;28;20018;-51
2021/11/10 01:32:36;;;;;;;3.63;2.13;;;17.60;68.60;;;;;;10378041;28;20033;-54
2021/11/10 01:37:37;;;;;;;2.97;1.90;;;17.60;68.50;;;;;;10377682;28;20025;-53
2021/11/10 01:42:43;;;;;;;4.68;2.58;;;17.60;68.40;;;;;;10377677;28;20112;-53
2021/11/10 01:47:45;;;;;;;3.58;2.15;;;17.60;68.20;;;;;;10376995;28;20038;-52
2021/11/10 01:52:47;;;;;;;3.63;2.20;;;17.70;68.20;;;;;;10377283;28;20046;-53
2021/11/10 01:57:48;;;;;;;4.43;2.13;;;17.70;68.00;;;;;;10361202;28;20104;-52
2021/11/10 02:02:49;;;;;;;4.18;2.20;;;17.70;68.10;;;;;;10339371;28;20042;-52
2021/11/10 02:07:50;;;;;;;3.75;2.25;;;17.60;68.20;;;;;;10358624;28;20030;-53
2021/11/10 02:12:55;;;;;;;2.90;2.17;;;17.70;68.10;;;;;;10351572;28;20046;-51
2021/11/10 02:17:59;;;;;;;3.53;2.40;;;17.70;68.00;;;;;;10353276;28;20038;-53
2021/11/10 02:23:02;;;;;;;3.20;2.17;;;17.70;68.00;;;;;;10335482;28;20034;-51
2021/11/10 02:28:03;;;;;;;4.25;2.35;;;17.60;68.10;;;;;;10346247;28;20027;-52
2021/11/10 02:33:05;;;;;;;3.05;1.75;;;17.70;68.00;;;;;;10335185;28;20084;-53
2021/11/10 02:38:09;;;;;;;4.85;2.42;;;17.70;68.00;;;;;;10358997;28;20073;-50
2021/11/10 02:43:10;;;;;;;3.55;2.03;;;17.70;68.10;;;;;;10334987;28;20449;-54
2021/11/10 02:48:12;;;;;;;3.15;1.88;;;17.60;68.00;;;;;;10370805;28;20037;-51
2021/11/10 02:53:13;;;;;;;3.38;2.08;;;17.70;67.90;;;;;;10374852;28;20057;-51
2021/11/10 02:58:14;;;;;;;3.20;2.08;;;17.60;68.00;;;;;;10374432;28;20480;-54
2021/11/10 03:03:14;;;;;;;3.05;1.90;;;17.60;68.00;;;;;;10374524;28;20120;-54
2021/11/10 03:08:19;;;;;;;3.53;2.20;;;17.60;67.80;;;;;;10354007;28;20433;-52
2021/11/10 03:13:20;;;;;;;2.90;1.83;;;17.70;67.70;;;;;;10355821;28;20041;-53
2021/11/10 03:18:21;;;;;;;2.72;2.20;;;17.80;67.40;;;;;;10341213;28;20034;-52
2021/11/10 03:23:21;;;;;;;2.75;1.80;;;17.80;67.40;;;;;;10333056;28;20053;-52
2021/11/10 03:28:22;;;;;;;3.33;1.90;;;17.70;67.50;;;;;;10337327;28;20030;-52
2021/11/10 03:33:23;;;;;;;3.35;2.03;;;17.60;67.60;;;;;;10333054;28;20177;-54
2021/11/10 03:38:23;;;;;;;4.43;2.20;;;17.70;67.70;;;;;;10370375;28;20088;-48
2021/11/10 03:43:24;;;;;;;1.95;1.38;;;17.70;67.50;;;;;;10371921;28;20034;-51
2021/11/10 03:48:25;;;;;;;2.92;1.35;;;17.60;67.60;;;;;;10372301;28;20042;-51
2021/11/10 03:53:26;;;;;;;2.75;1.90;;;17.60;67.70;;;;;;10359230;28;20104;-53
2021/11/10 03:58:27;;;;;;;2.53;1.75;;;17.70;67.50;;;;;;10343168;28;20038;-52
2021/11/10 04:03:28;;;;;;;3.00;1.73;;;17.70;67.40;;;;;;10369757;28;20486;-53
2021/11/10 04:08:28;;;;;;;3.42;1.92;;;17.70;67.20;;;;;;10350382;28;20762;-50
2021/11/10 04:13:31;;;;;;;2.72;1.70;;;17.80;67.20;;;;;;10356831;28;20110;-52
2021/11/10 04:18:35;;;;;;;2.45;1.67;;;17.70;67.10;;;;;;10343707;28;20073;-53
2021/11/10 04:23:36;;;;;;;2.53;1.75;;;17.70;67.30;;;;;;10337072;28;20487;-53
2021/11/10 04:28:36;;;;;;;2.80;1.88;;;17.70;67.20;;;;;;10347847;28;20130;-53
2021/11/10 04:33:37;;;;;;;2.95;2.10;;;17.80;67.10;;;;;;10338460;28;20030;-52
2021/11/10 04:38:38;;;;;;;2.53;1.67;;;17.70;67.20;;;;;;10379139;28;20153;-50
2021/11/10 04:43:39;;;;;;;3.20;2.00;;;17.70;67.10;;;;;;10340347;28;20033;-51
2021/11/10 04:48:40;;;;;;;2.83;1.63;;;17.70;67.10;;;;;;10365680;28;20082;-54
2021/11/10 04:53:43;;;;;;;2.67;1.85;;;17.70;67.20;;;;;;10338855;28;20077;-52
2021/11/10 04:58:44;;;;;;;2.95;1.80;;;17.70;67.20;;;;;;10350383;28;20069;-54
2021/11/10 05:03:45;;;;;;;3.72;1.70;;;17.70;67.10;;;;;;10338740;28;20578;-53
2021/11/10 05:08:47;;;;;;;2.28;1.60;;;17.70;67.20;;;;;;10346904;28;20125;-52
2021/11/10 05:13:48;;;;;;;2.78;1.70;;;17.70;67.30;;;;;;10363207;28;20471;-52
2021/11/10 05:18:49;;;;;;;2.80;1.60;;;17.70;67.10;;;;;;10344452;28;20034;-52
2021/11/10 05:23:50;;;;;;;3.35;2.30;;;17.70;67.10;;;;;;10337786;28;20389;-49
2021/11/10 05:28:50;;;;;;;3.08;1.70;;;17.70;67.10;;;;;;10341426;28;20050;-54
2021/11/10 05:33:51;;;;;;;2.67;1.83;;;17.70;67.00;;;;;;10337083;28;20022;-53
2021/11/10 05:38:52;;;;;;;1.80;1.33;;;17.70;66.80;;;;;;10377430;28;20041;-53
2021/11/10 05:43:53;;;;;;;2.83;1.75;;;17.90;66.60;;;;;;10377588;28;20036;-53
2021/11/10 05:48:54;;;;;;;2.45;1.63;;;18.00;66.10;;;;;;10375503;28;20072;-54
2021/11/10 05:53:55;;;;;;;2.60;1.50;;;18.20;65.70;;;;;;10376918;28;20435;-52
2021/11/10 05:58:57;;;;;;;2.92;1.88;;;18.10;65.40;;;;;;10375327;28;20113;-52
2021/11/10 06:03:59;;;;;;;3.72;1.77;;;18.20;65.90;;;;;;10373629;28;20029;-48
2021/11/10 06:09:00;;;;;;;4.80;2.05;;;18.30;65.90;;;;;;10382784;28;20607;-51
2021/11/10 06:14:00;;;;;;;3.55;2.00;;;18.40;66.10;;;;;;10347337;28;20042;-46
2021/11/10 06:19:01;;;;;;;3.38;1.80;;;18.50;66.10;;;;;;10341378;28;20560;-49
2021/11/10 06:24:02;;;;;;;8.60;2.72;;;18.50;67.00;;;;;;10335344;28;20472;-48
2021/11/10 06:29:03;;;;;;;5.10;1.88;;;18.50;67.20;;;;;;10338428;28;20034;-46
2021/11/10 06:34:04;;;;;;;7.28;1.45;;;18.60;67.20;;;;;;10329546;28;20022;-52
2021/11/10 06:39:05;;;;;;;9.70;1.88;;;18.80;66.50;;;;;;10349661;28;20100;-52
2021/11/10 06:44:06;;;;;;;3.78;1.80;;;18.90;65.90;;;;;;10332247;28;20507;-51
2021/11/10 06:49:07;;;;;;;7.22;2.55;;;19.00;65.70;;;;;;10348649;28;20034;-54
2021/11/10 06:54:09;;;;;;;7.13;2.22;;;19.00;65.90;;;;;;10374942;28;20109;-54
2021/11/10 06:59:10;;;;;;;9.32;2.67;;;18.90;66.00;;;;;;10374155;28;20041;-55
2021/11/10 07:04:10;;;;;;;8.48;2.40;;;18.80;66.20;;;;;;10339578;28;20045;-54
2021/11/10 07:09:11;;;;;;;10.70;2.40;;;18.70;66.70;;;;;;10337053;28;20039;-55
2021/11/10 07:14:12;;;;;;;9.23;2.95;;;18.80;66.20;;;;;;10350149;28;20473;-54
2021/11/10 07:19:12;;;;;;;9.63;3.03;;;18.80;65.40;;;;;;10340099;28;20034;-51
2021/11/10 07:24:14;;;;;;;12.13;2.78;;;18.80;65.30;;;;;;10340910;28;20121;-54
2021/11/10 07:29:15;;;;;;;6.00;2.33;;;18.70;65.40;;;;;;10332728;28;20041;-51
2021/11/10 07:34:16;;;;;;;5.35;2.53;;;18.70;65.70;;;;;;10345663;28;20033;-52
2021/11/10 07:39:17;;;;;;;6.13;2.30;;;18.50;66.00;;;;;;10352387;28;20038;-57
2021/11/10 07:44:17;;;;;;;20.48;3.22;;;18.50;65.90;;;;;;10333508;28;20034;-50
2021/11/10 07:49:23;;;;;;;5.97;2.47;;;18.60;66.00;;;;;;10369983;28;20022;-52
2021/11/10 07:54:23;;;;;;;10.60;3.33;;;18.70;65.50;;;;;;10371538;28;20030;-54
2021/11/10 07:59:24;;;;;;;7.43;2.55;;;18.70;65.20;;;;;;10372793;28;20030;-51
2021/11/10 08:04:25;;;;;;;11.05;3.10;;;18.60;65.30;;;;;;10372515;28;20030;-48
2021/11/10 08:09:26;;;;;;;7.63;2.80;;;18.50;65.60;;;;;;10353552;28;20043;-49
2021/11/10 08:14:29;;;;;;;8.27;2.90;;;18.60;66.10;;;;;;10334425;28;20057;-49
2021/11/10 08:19:29;;;;;;;7.72;3.50;;;18.60;66.00;;;;;;10367121;28;20121;-47
2021/11/10 08:24:32;;;;;;;7.43;3.53;;;18.50;65.60;;;;;;10372070;28;20043;-48
2021/11/10 08:29:33;;;;;;;8.50;3.65;;;18.40;66.30;;;;;;10359212;28;20538;-47
2021/11/10 08:34:33;;;;;;;12.10;4.60;;;18.30;67.00;;;;;;10357303;28;20022;-47
2021/11/10 08:39:34;;;;;;;9.63;4.20;;;18.30;67.60;;;;;;10370990;28;20045;-53
2021/11/10 08:44:41;;;;;;;19.38;4.43;;;18.30;68.30;;;;;;10363287;28;20058;-48
2021/11/10 08:49:42;;;;;;;11.07;3.67;;;18.30;68.80;;;;;;10347342;28;20045;-46
2021/11/10 08:54:42;;;;;;;9.23;3.58;;;18.20;69.10;;;;;;10334167;28;20034;-45
2021/11/10 08:59:43;;;;;;;13.70;4.53;;;18.10;69.50;;;;;;10341163;28;20038;-43
2021/11/10 09:04:44;;;;;;;11.63;4.35;;;18.10;70.30;;;;;;10344505;28;20077;-45
2021/11/10 09:09:45;;;;;;;16.80;5.45;;;18.10;70.00;;;;;;10349740;28;20088;-44
2021/11/10 09:14:45;;;;;;;29.75;5.00;;;18.00;71.10;;;;;;10352655;28;20042;-45
2021/11/10 09:19:47;;;;;;;10.52;3.70;;;18.00;71.30;;;;;;10378124;28;20540;-47
2021/11/10 09:24:47;;;;;;;17.80;4.85;;;17.90;70.90;;;;;;10378478;28;20445;-47
2021/11/10 09:29:48;;;;;;;14.20;4.28;;;17.80;71.00;;;;;;10377660;28;20041;-44
2021/11/10 09:34:49;;;;;;;10.40;3.80;;;17.80;70.80;;;;;;10377943;28;20025;-45
2021/11/10 09:39:50;;;;;;;10.98;3.72;;;17.90;70.50;;;;;;10378130;28;20046;-50
2021/11/10 09:44:54;;;;;;;7.88;2.80;;;18.00;70.20;;;;;;10376169;28;20053;-44
2021/11/10 09:49:55;;;;;;;8.65;3.00;;;18.20;69.80;;;;;;10375574;28;20038;-47
2021/11/10 09:54:56;;;;;;;12.95;4.07;;;18.20;69.20;;;;;;10354317;28;20019;-45
2021/11/10 09:59:57;;;;;;;6.53;3.45;;;18.00;68.50;;;;;;10362068;28;20045;-45
2021/11/10 10:04:58;;;;;;;6.85;3.40;;;18.10;68.90;;;;;;10335121;28;20045;-46
2021/11/10 10:09:59;;;;;;;7.20;3.53;;;18.30;69.10;;;;;;10345616;28;20022;-45
2021/11/10 10:15:00;;;;;;;9.85;4.15;;;18.30;69.80;;;;;;10359008;28;20027;-45
2021/11/10 10:20:04;;;;;;;6.72;3.78;;;18.30;70.20;;;;;;10340322;28;20356;-44
2021/11/10 10:25:05;;;;;;;6.15;3.08;;;18.20;70.50;;;;;;10338793;28;20034;-45
2021/11/10 10:30:30;;;;;;;9.98;4.90;;;18.10;70.00;;;;;;10375278;28;20565;-46
2021/11/10 10:35:47;;;;;;;9.75;3.88;;;18.10;70.30;;;;;;10349891;28;20030;-45
2021/11/10 10:40:52;;;;;;;9.63;3.85;;;18.00;70.20;;;;;;10358452;28;20474;-47
2021/11/10 10:45:57;;;;;;;5.22;3.75;;;18.00;70.30;;;;;;10333462;28;20042;-45
2021/11/10 10:51:08;;;;;;;6.50;3.88;;;17.90;70.40;;;;;;10345588;28;20042;-44
2021/11/10 10:56:35;;;;;;;12.73;5.60;;;17.80;70.40;;;;;;10347854;28;20023;-45
2021/11/10 11:01:43;;;;;;;10.73;6.50;;;17.70;69.50;;;;;;10342319;28;20030;-50
2021/11/10 11:07:06;;;;;;;13.63;6.82;;;17.70;67.60;;;;;;10346111;28;20034;-47
2021/11/10 11:12:23;;;;;;;22.73;8.52;;;17.80;67.30;;;;;;10356588;28;20122;-46
2021/11/10 11:17:38;;;;;;;24.58;8.85;;;18.00;66.80;;;;;;10361740;28;20192;-47
2021/11/10 11:22:43;;;;;;;22.98;7.93;;;18.20;67.50;;;;;;10344460;28;20093;-46
2021/11/10 11:28:04;;;;;;;25.92;7.35;;;18.30;67.60;;;;;;10355351;28;20038;-45
2021/11/10 11:33:13;;;;;;;22.67;7.95;;;18.30;68.40;;;;;;10334877;28;20066;-45
2021/11/10 11:38:21;;;;;;;26.70;7.25;;;18.30;68.80;;;;;;10367975;28;20034;-48
2021/11/10 11:43:28;;;;;;;13.85;8.13;;;18.30;68.30;;;;;;10366886;28;20033;-45
2021/11/10 11:48:29;;;;;;;17.73;6.68;;;18.30;68.30;;;;;;10333642;28;20044;-45
2021/11/10 11:53:34;;;;;;;25.02;7.13;;;18.20;68.60;;;;;;10353963;28;20532;-47
2021/11/10 11:58:44;;;;;;;23.75;7.15;;;18.00;68.80;;;;;;10371679;28;20049;-44
2021/11/10 12:03:52;;;;;;;23.15;7.50;;;17.90;68.90;;;;;;10371223;28;20041;-45
2021/11/10 12:09:01;;;;;;;22.70;8.32;;;17.90;68.70;;;;;;10369448;28;20042;-44
2021/11/10 12:14:06;;;;;;;21.58;7.03;;;17.90;68.80;;;;;;10336669;28;20030;-46
2021/11/10 12:19:07;;;;;;;19.77;7.07;;;17.80;68.80;;;;;;10334328;28;20034;-47
2021/11/10 12:24:51;;;;;;;21.20;5.97;;;17.80;68.80;;;;;;10337151;28;20034;-44
2021/11/10 12:30:25;;;;;;;16.90;5.43;;;17.80;68.90;;;;;;10331518;28;20038;-44
2021/11/10 12:35:47;;;;;;;20.67;6.75;;;17.70;69.00;;;;;;10366950;28;20100;-43
2021/11/10 12:40:51;;;;;;;59.05;36.42;;;17.80;68.80;;;;;;10344229;28;20556;-45
2021/11/10 12:46:00;;;;;;;23.20;10.05;;;17.90;68.70;;;;;;10347880;28;20046;-45
2021/11/10 12:51:30;;;;;;;32.53;10.57;;;18.00;68.40;;;;;;10372269;28;20034;-44
2021/11/10 12:56:54;;;;;;;23.75;11.43;;;18.00;68.40;;;;;;10378150;28;20032;-49
2021/11/10 13:01:59;;;;;;;27.25;10.63;;;18.00;68.40;;;;;;10379170;28;20034;-49
2021/11/10 13:07:10;;;;;;;26.75;11.27;;;18.10;67.90;;;;;;10355901;28;20123;-47
2021/11/10 13:12:15;;;;;;;16.67;9.50;;;18.20;67.80;;;;;;10361510;28;20065;-48
2021/11/10 13:17:29;;;;;;;25.38;9.85;;;18.20;67.60;;;;;;10336940;28;20031;-49
2021/11/10 13:22:30;;;;;;;19.30;8.63;;;18.20;67.80;;;;;;10349017;28;20041;-46
2021/11/10 13:27:38;;;;;;;21.23;10.50;;;18.10;67.50;;;;;;10356538;28;20035;-44
2021/11/10 13:32:48;;;;;;;21.73;9.10;;;18.30;67.30;;;;;;10359376;28;20053;-45
2021/11/10 13:37:52;;;;;;;18.23;8.93;;;18.50;66.80;;;;;;10369155;28;20033;-44
2021/11/10 13:42:56;;;;;;;20.58;9.60;;;18.60;66.70;;;;;;10359941;28;20033;-45
2021/11/10 13:48:01;;;;;;;13.45;6.80;;;18.70;66.80;;;;;;10355995;28;20140;-46
2021/11/10 13:53:22;;;;;;;18.20;7.38;;;18.80;66.50;;;;;;10341432;28;20615;-44
2021/11/10 13:58:22;;;;;;;21.30;8.90;;;18.90;67.10;;;;;;10355103;28;20053;-44
2021/11/10 14:03:27;;;;;;;19.63;9.35;;;18.80;67.50;;;;;;10342156;28;20026;-47
2021/11/10 14:08:28;;;;;;;23.60;10.32;;;18.80;67.40;;;;;;10338785;28;20046;-47
2021/11/10 14:13:29;;;;;;;21.90;9.52;;;18.70;68.10;;;;;;10349571;28;20157;-44
2021/11/10 14:18:30;;;;;;;20.70;9.50;;;18.70;68.10;;;;;;10359852;28;20555;-44
2021/11/10 14:23:32;;;;;;;17.73;9.43;;;18.60;67.90;;;;;;10335008;28;20501;-44
2021/11/10 14:28:37;;;;;;;28.30;10.80;;;18.60;69.00;;;;;;10335225;28;20026;-43
2021/11/10 14:33:41;;;;;;;17.65;9.93;;;18.50;69.60;;;;;;10337579;28;20030;-43
2021/11/10 14:38:48;;;;;;;21.98;10.45;;;18.50;69.80;;;;;;10375414;28;20116;-44
2021/11/10 14:43:49;;;;;;;22.48;9.00;;;18.50;69.30;;;;;;10375085;28;20448;-44
2021/11/10 14:49:11;;;;;;;21.88;10.73;;;18.40;68.90;;;;;;10373188;28;20137;-44
2021/11/10 14:54:17;;;;;;;20.65;9.05;;;18.40;69.50;;;;;;10340177;28;20394;-44
2021/11/10 14:59:28;;;;;;;38.08;17.90;;;18.30;69.70;;;;;;10357175;28;20088;-43
2021/11/10 15:04:29;;;;;;;39.33;16.15;;;18.10;69.90;;;;;;10357494;28;20074;-44
2021/11/10 15:09:29;;;;;;;32.05;12.15;;;18.10;71.20;;;;;;10372537;28;20037;-44
2021/11/10 15:14:43;;;;;;;24.77;9.25;;;18.10;69.80;;;;;;10333990;28;20097;-43
2021/11/10 15:20:06;;;;;;;21.85;9.75;;;18.20;68.00;;;;;;10347514;28;20046;-44
2021/11/10 15:25:16;;;;;;;18.20;8.70;;;18.30;66.70;;;;;;10331662;28;20034;-45
2021/11/10 15:30:25;;;;;;;15.05;7.70;;;18.40;65.80;;;;;;10348627;28;20150;-45
2021/11/10 15:35:32;;;;;;;18.67;7.50;;;18.50;65.00;;;;;;10363368;28;20025;-44
2021/11/10 15:40:34;;;;;;;12.23;6.72;;;18.50;64.40;;;;;;10357779;28;20041;-44
2021/11/10 15:45:36;;;;;;;11.93;7.63;;;18.50;64.00;;;;;;10332754;28;1058004;-44
2021/11/10 15:50:38;;;;;;;13.50;7.20;;;18.50;63.40;;;;;;10370712;28;20029;-46
2021/11/10 15:55:39;;;;;;;15.88;7.22;;;18.50;63.40;;;;;;10370041;28;20038;-46
2021/11/10 16:00:40;;;;;;;14.00;7.78;;;18.50;63.10;;;;;;10361768;28;20030;-46
2021/11/10 16:05:43;;;;;;;12.13;6.25;;;18.50;62.60;;;;;;10369641;28;20087;-48
2021/11/10 16:10:48;;;;;;;11.77;6.57;;;18.60;62.10;;;;;;10359371;28;20026;-46
2021/11/10 16:15:49;;;;;;;9.15;6.80;;;18.70;61.30;;;;;;10344405;28;20081;-45
2021/11/10 16:20:51;;;;;;;12.48;7.43;;;19.00;60.60;;;;;;10338942;28;20381;-46
2021/11/10 16:25:56;;;;;;;13.15;7.78;;;19.20;60.20;;;;;;10332235;28;20034;-45
2021/11/10 16:35:59;;;;;;;13.15;7.82;;;19.20;60.60;;;;;;10361805;28;20068;-46
2021/11/10 16:41:04;;;;;;;15.90;8.02;;;19.30;60.30;;;;;;10363605;28;20037;-44
2021/11/10 16:46:05;;;;;;;16.17;9.75;;;19.50;60.50;;;;;;10348315;28;20050;-44
2021/11/10 16:51:06;;;;;;;16.45;9.48;;;19.60;60.50;;;;;;10368284;28;20030;-45
2021/11/10 16:56:08;;;;;;;11.75;8.20;;;19.60;61.00;;;;;;10369580;28;20473;-45
2021/11/10 17:01:11;;;;;;;16.88;9.40;;;19.50;61.70;;;;;;10368319;28;20065;-44
2021/11/10 17:06:13;;;;;;;9.75;7.97;;;19.60;61.70;;;;;;10370218;28;20030;-45
2021/11/10 17:11:14;;;;;;;14.55;8.68;;;19.80;61.70;;;;;;10362779;28;20608;-46
2021/11/10 17:16:15;;;;;;;12.20;7.65;;;19.90;62.60;;;;;;10361598;28;20038;-44
2021/11/10 17:21:16;;;;;;;12.43;7.20;;;19.80;64.20;;;;;;10328413;28;20487;-45
2021/11/10 17:26:17;;;;;;;10.27;6.70;;;19.60;64.60;;;;;;10330887;28;20352;-45
2021/11/10 17:31:17;;;;;;;9.52;6.50;;;19.50;65.10;;;;;;10345609;28;20026;-45
2021/11/10 17:36:18;;;;;;;13.55;7.32;;;19.40;65.90;;;;;;10377512;28;20375;-46
2021/11/10 17:41:20;;;;;;;15.95;7.43;;;19.20;66.30;;;;;;10377833;28;20470;-47
2021/11/10 17:46:21;;;;;;;11.35;6.78;;;19.00;67.70;;;;;;10377429;28;20132;-46
2021/11/10 17:51:22;;;;;;;14.15;6.43;;;18.90;68.10;;;;;;10366653;28;20046;-46
2021/11/10 17:56:23;;;;;;;11.85;6.20;;;18.80;68.20;;;;;;10373096;28;20037;-45
2021/11/10 18:01:25;;;;;;;8.45;5.13;;;18.70;68.10;;;;;;10376716;28;20029;-49
2021/11/10 18:06:26;;;;;;;8.02;6.22;;;18.60;67.70;;;;;;10376994;28;20030;-44
2021/11/10 18:11:26;;;;;;;9.80;5.80;;;18.50;68.00;;;;;;10362733;28;20439;-44
2021/11/10 18:16:27;;;;;;;9.70;5.57;;;18.40;68.10;;;;;;10347802;28;20042;-44
2021/11/10 18:21:29;;;;;;;11.02;5.50;;;18.30;68.30;;;;;;10351829;28;20528;-44
2021/11/10 18:26:31;;;;;;;8.90;5.65;;;18.30;68.40;;;;;;10339949;28;20056;-46
2021/11/10 18:31:32;;;;;;;12.10;5.63;;;18.20;68.50;;;;;;10389986;28;20033;-44
2021/11/10 18:36:33;;;;;;;10.98;5.78;;;18.20;68.60;;;;;;10374042;28;20018;-45
2021/11/10 18:41:34;;;;;;;9.13;5.45;;;18.10;68.70;;;;;;10372964;28;20034;-46
2021/11/10 18:46:37;;;;;;;10.82;5.32;;;18.10;68.70;;;;;;10372563;28;20046;-46
2021/11/10 18:51:39;;;;;;;8.48;5.00;;;18.00;68.80;;;;;;10366489;28;20056;-46
2021/11/10 18:56:40;;;;;;;10.85;4.80;;;18.00;68.90;;;;;;10365306;28;20056;-45
2021/11/10 19:01:43;;;;;;;7.78;4.80;;;18.10;68.80;;;;;;10384663;28;20034;-49
2021/11/10 19:06:52;;;;;;;7.35;5.60;;;18.10;68.80;;;;;;10372773;28;20021;-45
2021/11/10 19:12:13;;;;;;;9.15;4.40;;;18.10;68.80;;;;;;10374306;28;20030;-46
2021/11/10 19:22:30;;;;;;;8.77;5.00;;;18.00;68.90;;;;;;10359268;28;20069;-46
2021/11/10 19:27:32;;;;;;;8.63;5.10;;;18.10;68.80;;;;;;10369287;28;20111;-47
2021/11/10 19:32:33;;;;;;;6.93;4.38;;;18.30;68.70;;;;;;10360324;28;20120;-47
2021/11/10 19:37:35;;;;;;;9.35;4.53;;;18.30;68.50;;;;;;10357777;28;20030;-46
2021/11/10 19:42:35;;;;;;;6.90;4.88;;;18.30;68.60;;;;;;10361048;28;20058;-45
2021/11/10 19:47:42;;;;;;;7.82;4.40;;;18.30;68.50;;;;;;10336306;28;20104;-45
2021/11/10 19:52:43;;;;;;;7.28;4.00;;;18.30;68.50;;;;;;10352359;28;20456;-44
2021/11/10 19:57:49;;;;;;;9.75;4.90;;;18.30;68.70;;;;;;10345706;28;20049;-48
2021/11/10 20:02:50;;;;;;;7.18;4.43;;;18.20;68.90;;;;;;10356087;28;20117;-48
2021/11/10 20:07:54;;;;;;;7.63;4.15;;;18.20;68.90;;;;;;10354338;28;20049;-49
2021/11/10 20:12:56;;;;;;;8.25;3.60;;;18.20;68.90;;;;;;10359385;28;20040;-53
2021/11/10 20:17:57;;;;;;;6.65;3.92;;;18.10;69.10;;;;;;10368369;28;20029;-48
2021/11/10 20:22:58;;;;;;;7.97;3.78;;;18.00;69.20;;;;;;10368489;28;20038;-45
2021/11/10 20:27:59;;;;;;;6.13;3.53;;;17.90;69.40;;;;;;10369504;28;20104;-49
2021/11/10 20:33:04;;;;;;;7.13;4.03;;;17.90;69.60;;;;;;10369940;28;20117;-50
2021/11/10 20:38:08;;;;;;;6.50;3.70;;;17.80;69.70;;;;;;10369534;28;20022;-50
2021/11/10 20:43:09;;;;;;;8.65;3.70;;;17.80;69.90;;;;;;10369321;28;20148;-51
2021/11/10 20:48:10;;;;;;;6.13;3.10;;;17.70;69.80;;;;;;10370562;28;20522;-46
2021/11/10 20:53:12;;;;;;;5.63;3.70;;;17.70;69.80;;;;;;10371436;28;20044;-48
2021/11/10 20:58:13;;;;;;;6.30;3.95;;;17.60;69.90;;;;;;10371740;28;20018;-47
2021/11/10 21:03:16;;;;;;;8.70;3.72;;;17.60;70.00;;;;;;10372024;28;20077;-50
2021/11/10 21:08:17;;;;;;;4.82;3.28;;;17.60;70.10;;;;;;10337427;28;20034;-49
2021/11/10 21:13:19;;;;;;;4.32;3.40;;;17.60;70.20;;;;;;10347363;28;20096;-48
2021/11/10 21:18:21;;;;;;;4.78;3.63;;;17.50;70.30;;;;;;10338301;28;20117;-46
2021/11/10 21:23:21;;;;;;;4.90;3.38;;;17.50;70.30;;;;;;10343211;28;20411;-47
2021/11/10 21:28:23;;;;;;;4.95;3.50;;;17.50;70.30;;;;;;10337949;28;20038;-49
2021/11/10 21:33:31;;;;;;;5.30;4.32;;;17.50;70.40;;;;;;10340358;28;20033;-49
2021/11/10 21:38:32;;;;;;;6.63;4.00;;;17.40;70.40;;;;;;10375472;28;20573;-51
2021/11/10 21:43:32;;;;;;;5.47;3.70;;;17.40;70.40;;;;;;10351917;28;20154;-47
2021/11/10 21:48:33;;;;;;;7.18;3.90;;;17.40;70.40;;;;;;10350083;28;20541;-47
2021/11/10 21:53:35;;;;;;;6.00;3.60;;;17.40;70.40;;;;;;10376333;28;20038;-48
2021/11/10 21:58:36;;;;;;;4.70;3.50;;;17.40;70.20;;;;;;10376088;28;20367;-46
2021/11/10 22:03:37;;;;;;;5.88;3.30;;;17.40;70.10;;;;;;10377114;28;20038;-47
2021/11/10 22:08:38;;;;;;;5.50;3.30;;;17.40;70.10;;;;;;10376884;28;20026;-45
2021/11/10 22:13:38;;;;;;;4.03;3.17;;;17.40;70.10;;;;;;10367652;28;20042;-48
2021/11/10 22:18:40;;;;;;;7.30;3.70;;;17.40;70.10;;;;;;10336279;28;20075;-47
2021/11/10 22:23:41;;;;;;;6.55;3.53;;;17.50;69.70;;;;;;10338016;28;20106;-48
2021/11/10 22:28:43;;;;;;;5.93;3.10;;;17.60;69.50;;;;;;10336981;28;20034;-46
2021/11/10 22:33:43;;;;;;;5.13;3.25;;;17.60;69.30;;;;;;10337966;28;20026;-47
2021/11/10 22:38:44;;;;;;;5.18;3.40;;;17.60;69.10;;;;;;10374122;28;20041;-47
2021/11/10 22:43:45;;;;;;;3.88;3.13;;;17.70;69.10;;;;;;10374138;28;20049;-48
2021/11/10 22:48:46;;;;;;;5.93;3.33;;;17.70;69.00;;;;;;10374935;28;20052;-49
2021/11/10 22:53:47;;;;;;;5.65;3.50;;;17.70;68.80;;;;;;10375276;28;20083;-46
2021/11/10 22:58:48;;;;;;;4.93;3.47;;;17.70;68.90;;;;;;10374985;28;20118;-49
2021/11/10 23:03:49;;;;;;;4.70;3.28;;;17.70;69.00;;;;;;10356187;28;20061;-50
2021/11/10 23:08:50;;;;;;;6.13;3.38;;;17.60;69.10;;;;;;10337497;28;20088;-47
2021/11/10 23:13:51;;;;;;;5.47;3.80;;;17.60;69.20;;;;;;10359107;28;20033;-45
2021/11/10 23:18:52;;;;;;;6.15;3.30;;;17.60;69.40;;;;;;10345260;28;20042;-46
2021/11/10 23:23:55;;;;;;;4.97;3.30;;;17.60;69.20;;;;;;10333555;28;20101;-47
2021/11/10 23:28:56;;;;;;;5.50;2.90;;;17.60;69.10;;;;;;10354459;28;20041;-47
2021/11/10 23:33:57;;;;;;;6.97;3.42;;;17.60;69.10;;;;;;10333679;28;20037;-46
2021/11/10 23:38:58;;;;;;;4.28;3.20;;;17.70;69.10;;;;;;10373389;28;20034;-45
2021/11/10 23:43:59;;;;;;;5.85;3.58;;;17.70;68.80;;;;;;10373344;28;20034;-45
2021/11/10 23:49:00;;;;;;;5.30;3.90;;;17.70;68.60;;;;;;10371559;28;20033;-47
2021/11/10 23:54:01;;;;;;;5.55;3.97;;;17.70;68.70;;;;;;10373053;28;20037;-46
2021/11/10 23:59:02;;;;;;;4.95;3.00;;;17.70;68.90;;;;;;10372845;28;20112;-49
